Time;durP1;ratioP1;P1;durP2;ratioP2;P2;SDS_P1;SDS_P2;PMS_P1;PMS_P2;Temp;Humidity;BMP_temperature;BMP_pressure;BME280_temperature;BME280_humidity;BME280_pressure;Samples;Min_cycle;Max_cycle;Signal;HPM_P1;HPM_P2
2023/04/16 00:01:34;;;;;;;81.82;25.00;;;;;;;;;;4946767;28;20043;-78
2023/04/16 00:04:01;;;;;;;80.88;25.88;;;;;;;;;;4952238;28;20495;-78
2023/04/16 00:06:31;;;;;;;74.32;25.90;;;;;;;;;;4953428;28;20066;-79
2023/04/16 00:08:59;;;;;;;90.28;25.58;;;;;;;;;;4951099;28;20070;-79
2023/04/16 00:11:28;;;;;;;79.43;25.55;;;;;;;;;;4951894;28;20311;-77
2023/04/16 00:13:54;;;;;;;134.45;26.85;;;;;;;;;;4952726;28;20555;-78
2023/04/16 00:16:21;;;;;;;83.38;25.25;;;;;;;;;;4953106;28;20135;-77
2023/04/16 00:18:47;;;;;;;73.90;24.77;;;;;;;;;;4951992;28;20050;-77
2023/04/16 00:21:15;;;;;;;71.70;25.35;;;;;;;;;;4951914;28;20463;-77
2023/04/16 00:23:41;;;;;;;190.02;27.88;;;;;;;;;;4929062;28;20576;-78
2023/04/16 00:26:08;;;;;;;88.00;27.73;;;;;;;;;;4930022;28;20064;-76
2023/04/16 00:28:35;;;;;;;67.03;25.42;;;;;;;;;;4931971;28;20058;-78
2023/04/16 00:31:02;;;;;;;82.47;26.05;;;;;;;;;;4931194;28;20567;-78
2023/04/16 00:33:29;;;;;;;89.70;25.13;;;;;;;;;;4931258;28;20555;-78
2023/04/16 00:35:55;;;;;;;68.70;24.55;;;;;;;;;;4934866;28;20059;-78
2023/04/16 00:38:22;;;;;;;67.38;24.10;;;;;;;;;;4932075;28;20118;-78
2023/04/16 00:40:48;;;;;;;74.50;24.45;;;;;;;;;;4932707;28;20040;-79
2023/04/16 00:43:21;;;;;;;68.22;25.30;;;;;;;;;;4931453;28;20052;-78
2023/04/16 00:45:49;;;;;;;92.93;26.10;;;;;;;;;;4941662;28;20051;-77
2023/04/16 00:48:15;;;;;;;100.40;25.55;;;;;;;;;;4970439;28;20054;-76
2023/04/16 00:50:42;;;;;;;193.55;27.58;;;;;;;;;;4970432;28;20047;-76
2023/04/16 00:53:10;;;;;;;110.20;26.40;;;;;;;;;;4971651;28;20066;-77
2023/04/16 00:55:38;;;;;;;112.05;25.85;;;;;;;;;;4984049;28;20136;-78
2023/04/16 00:58:04;;;;;;;195.70;26.67;;;;;;;;;;4992709;28;20098;-77
2023/04/16 01:00:31;;;;;;;69.88;25.33;;;;;;;;;;4992344;28;20057;-78
2023/04/16 01:03:00;;;;;;;95.07;26.67;;;;;;;;;;4980432;28;20050;-79
2023/04/16 01:05:27;;;;;;;88.63;25.48;;;;;;;;;;4943790;28;20460;-78
2023/04/16 01:07:57;;;;;;;99.65;27.88;;;;;;;;;;4948687;28;20073;-78
2023/04/16 01:10:24;;;;;;;128.05;26.52;;;;;;;;;;4931691;28;20529;-78
2023/04/16 01:12:51;;;;;;;133.55;26.70;;;;;;;;;;4948235;28;20069;-78
2023/04/16 01:15:18;;;;;;;244.98;28.63;;;;;;;;;;4950290;28;20043;-78
2023/04/16 01:17:45;;;;;;;75.65;26.30;;;;;;;;;;4948234;28;20122;-78
2023/04/16 01:20:11;;;;;;;107.28;27.73;;;;;;;;;;4931460;28;20070;-77
2023/04/16 01:22:38;;;;;;;69.18;26.80;;;;;;;;;;4947170;28;20462;-78
2023/04/16 01:25:05;;;;;;;70.40;25.48;;;;;;;;;;4945681;28;20074;-78
2023/04/16 01:27:31;;;;;;;63.05;24.27;;;;;;;;;;4931728;28;20047;-78
2023/04/16 01:29:58;;;;;;;60.35;24.13;;;;;;;;;;4953123;28;20055;-78
2023/04/16 01:32:36;;;;;;;67.22;24.33;;;;;;;;;;4945768;28;20050;-77
2023/04/16 01:35:03;;;;;;;72.32;24.13;;;;;;;;;;4930906;28;20047;-77
2023/04/16 01:37:30;;;;;;;67.15;23.67;;;;;;;;;;4949158;28;20039;-79
2023/04/16 01:39:56;;;;;;;70.70;24.33;;;;;;;;;;4950233;28;20526;-78
2023/04/16 01:42:23;;;;;;;129.35;25.83;;;;;;;;;;4949847;28;20039;-77
2023/04/16 01:44:50;;;;;;;88.03;25.73;;;;;;;;;;4951240;28;20051;-78
2023/04/16 01:47:16;;;;;;;88.30;26.25;;;;;;;;;;4951592;28;20039;-78
2023/04/16 01:49:44;;;;;;;113.22;26.98;;;;;;;;;;4951615;28;20050;-77
2023/04/16 01:52:11;;;;;;;64.55;26.30;;;;;;;;;;4953385;28;20094;-77
2023/04/16 01:54:37;;;;;;;73.78;27.23;;;;;;;;;;4952544;28;20047;-77
2023/04/16 01:57:04;;;;;;;64.07;26.38;;;;;;;;;;4951556;28;20054;-78
2023/04/16 01:59:31;;;;;;;58.92;25.05;;;;;;;;;;4934532;29;20047;-78
2023/04/16 02:02:04;;;;;;;69.43;24.98;;;;;;;;;;4949849;28;20290;-77
2023/04/16 02:04:31;;;;;;;55.25;25.65;;;;;;;;;;4949624;28;20051;-77
2023/04/16 02:06:57;;;;;;;82.85;26.95;;;;;;;;;;4946397;28;20047;-77
2023/04/16 02:09:24;;;;;;;66.68;26.80;;;;;;;;;;4949794;28;20062;-77
2023/04/16 02:11:50;;;;;;;65.05;26.38;;;;;;;;;;4947061;28;20416;-76
2023/04/16 02:14:17;;;;;;;80.90;27.20;;;;;;;;;;4950512;28;20043;-77
2023/04/16 02:16:44;;;;;;;65.78;27.20;;;;;;;;;;4933047;28;20114;-78
2023/04/16 02:19:20;;;;;;;72.85;27.67;;;;;;;;;;4934428;28;20142;-77
2023/04/16 02:21:47;;;;;;;68.43;27.70;;;;;;;;;;4953183;28;20503;-79
2023/04/16 02:24:14;;;;;;;65.78;27.90;;;;;;;;;;4955924;28;20047;-76
2023/04/16 02:26:41;;;;;;;70.63;28.92;;;;;;;;;;4967624;28;20137;-76
2023/04/16 02:29:12;;;;;;;66.13;28.70;;;;;;;;;;4967823;28;20139;-77
2023/04/16 02:31:43;;;;;;;69.38;27.98;;;;;;;;;;4967985;28;20101;-77
2023/04/16 02:34:10;;;;;;;72.38;28.80;;;;;;;;;;4968209;28;20055;-78
2023/04/16 02:36:37;;;;;;;69.25;28.90;;;;;;;;;;4968789;28;20053;-78
2023/04/16 02:39:03;;;;;;;70.32;29.25;;;;;;;;;;4968713;28;20113;-77
2023/04/16 02:41:30;;;;;;;80.90;30.95;;;;;;;;;;4967156;28;20043;-78
2023/04/16 02:43:57;;;;;;;82.85;32.03;;;;;;;;;;4968775;28;20046;-78
2023/04/16 02:46:24;;;;;;;75.05;29.85;;;;;;;;;;4952986;28;20092;-78
2023/04/16 02:48:50;;;;;;;72.22;30.58;;;;;;;;;;4959733;28;20043;-78
2023/04/16 02:51:17;;;;;;;75.50;32.53;;;;;;;;;;4951382;28;20383;-78
2023/04/16 02:53:44;;;;;;;83.40;32.60;;;;;;;;;;4947608;28;20135;-77
2023/04/16 02:56:12;;;;;;;79.45;31.88;;;;;;;;;;4947845;28;20559;-76
2023/04/16 02:58:39;;;;;;;76.15;30.95;;;;;;;;;;4932993;29;20045;-77
2023/04/16 03:01:05;;;;;;;73.32;31.75;;;;;;;;;;4949672;28;20122;-79
2023/04/16 03:03:32;;;;;;;72.85;30.98;;;;;;;;;;4948576;28;20121;-77
2023/04/16 03:05:59;;;;;;;73.70;31.30;;;;;;;;;;4950617;28;20048;-78
2023/04/16 03:08:26;;;;;;;71.30;30.67;;;;;;;;;;4948344;28;20345;-78
2023/04/16 03:10:52;;;;;;;68.38;29.45;;;;;;;;;;4934568;28;20050;-78
2023/04/16 03:13:19;;;;;;;73.07;30.73;;;;;;;;;;4948766;28;20039;-77
2023/04/16 03:15:49;;;;;;;74.53;29.58;;;;;;;;;;4949663;28;20243;-77
2023/04/16 03:18:15;;;;;;;73.13;30.23;;;;;;;;;;4950016;28;20051;-78
2023/04/16 03:20:42;;;;;;;72.93;31.42;;;;;;;;;;4948783;28;20133;-76
2023/04/16 03:23:10;;;;;;;73.63;30.20;;;;;;;;;;4948411;28;20379;-78
2023/04/16 03:25:39;;;;;;;66.32;29.02;;;;;;;;;;4947111;28;20606;-77
2023/04/16 03:28:07;;;;;;;63.33;28.45;;;;;;;;;;4948284;28;20047;-78
2023/04/16 03:30:33;;;;;;;64.07;30.25;;;;;;;;;;4948746;28;20632;-76
2023/04/16 03:33:00;;;;;;;70.00;30.88;;;;;;;;;;4949137;28;20250;-76
2023/04/16 03:35:27;;;;;;;65.50;28.70;;;;;;;;;;4948311;28;20039;-78
2023/04/16 03:37:54;;;;;;;64.43;29.27;;;;;;;;;;4948472;28;20138;-79
2023/04/16 03:40:20;;;;;;;59.17;28.35;;;;;;;;;;4947088;28;20044;-78
2023/04/16 03:42:47;;;;;;;62.22;29.20;;;;;;;;;;4946509;28;20050;-75
2023/04/16 03:45:14;;;;;;;61.13;29.05;;;;;;;;;;4948747;28;20602;-78
2023/04/16 03:47:42;;;;;;;59.88;27.73;;;;;;;;;;4948642;28;20042;-78
2023/04/16 03:50:10;;;;;;;60.92;29.70;;;;;;;;;;4932957;28;20061;-77
2023/04/16 03:52:37;;;;;;;61.28;28.67;;;;;;;;;;4948621;28;20062;-78
2023/04/16 03:55:04;;;;;;;63.88;28.80;;;;;;;;;;4931387;28;20460;-77
2023/04/16 03:57:31;;;;;;;68.75;30.70;;;;;;;;;;4949973;28;20451;-77
2023/04/16 04:00:05;;;;;;;70.32;29.55;;;;;;;;;;4947933;28;20134;-77
2023/04/16 04:03:05;;;;;;;70.65;31.58;;;;;;;;;;4946017;28;20047;-77
2023/04/16 04:05:39;;;;;;;68.88;31.50;;;;;;;;;;4933387;28;20115;-79
2023/04/16 04:08:08;;;;;;;71.43;30.00;;;;;;;;;;4957419;28;20074;-78
2023/04/16 04:10:35;;;;;;;74.57;32.60;;;;;;;;;;4950477;28;20089;-77
2023/04/16 04:13:04;;;;;;;68.10;30.00;;;;;;;;;;4952877;28;20415;-78
2023/04/16 04:15:31;;;;;;;72.63;29.83;;;;;;;;;;4954958;28;20582;-77
2023/04/16 04:17:58;;;;;;;76.18;31.02;;;;;;;;;;4955036;28;20069;-76
2023/04/16 04:20:25;;;;;;;71.43;30.75;;;;;;;;;;4954702;28;20122;-77
2023/04/16 04:22:52;;;;;;;68.35;30.58;;;;;;;;;;4986646;28;20047;-78
2023/04/16 04:25:22;;;;;;;74.55;31.70;;;;;;;;;;4969861;28;20388;-78
2023/04/16 04:27:48;;;;;;;66.32;30.25;;;;;;;;;;4969516;28;20127;-77
2023/04/16 04:30:15;;;;;;;76.50;30.42;;;;;;;;;;4969516;28;20399;-77
2023/04/16 04:32:42;;;;;;;76.18;32.35;;;;;;;;;;4957420;28;20138;-78
2023/04/16 04:35:09;;;;;;;79.47;31.63;;;;;;;;;;4956431;28;20047;-78
2023/04/16 04:37:36;;;;;;;82.60;31.17;;;;;;;;;;4948784;28;20050;-76
2023/04/16 04:40:11;;;;;;;72.47;31.48;;;;;;;;;;4947851;28;20054;-77
2023/04/16 04:42:38;;;;;;;76.97;30.17;;;;;;;;;;4948528;28;20055;-77
2023/04/16 04:45:05;;;;;;;67.07;28.75;;;;;;;;;;4951505;28;20051;-77
2023/04/16 04:47:32;;;;;;;67.78;28.90;;;;;;;;;;4960202;28;21904;-78
2023/04/16 04:49:59;;;;;;;60.72;28.80;;;;;;;;;;4978250;28;20507;-78
2023/04/16 04:52:26;;;;;;;63.83;30.75;;;;;;;;;;4948806;28;20051;-77
2023/04/16 04:54:53;;;;;;;65.05;28.98;;;;;;;;;;4956683;28;20067;-78
2023/04/16 04:57:20;;;;;;;67.50;29.70;;;;;;;;;;4959828;28;20070;-77
2023/04/16 04:59:49;;;;;;;64.97;28.98;;;;;;;;;;4966684;28;20038;-78
2023/04/16 05:02:16;;;;;;;59.63;29.05;;;;;;;;;;4943464;28;20047;-78
2023/04/16 05:04:43;;;;;;;55.00;26.17;;;;;;;;;;4964209;28;20102;-76
2023/04/16 05:07:09;;;;;;;52.33;26.08;;;;;;;;;;4959209;28;20133;-77
2023/04/16 05:09:36;;;;;;;49.47;23.88;;;;;;;;;;4960975;28;20049;-77
2023/04/16 05:12:02;;;;;;;47.35;24.42;;;;;;;;;;4955828;28;20415;-78
2023/04/16 05:14:29;;;;;;;46.58;24.23;;;;;;;;;;4951094;28;20154;-78
2023/04/16 05:16:56;;;;;;;47.42;23.92;;;;;;;;;;4963573;28;20051;-78
2023/04/16 05:19:23;;;;;;;46.17;23.42;;;;;;;;;;4942980;28;20052;-78
2023/04/16 05:21:49;;;;;;;45.75;24.10;;;;;;;;;;4953308;28;20575;-77
2023/04/16 05:24:16;;;;;;;45.75;24.27;;;;;;;;;;4953820;28;20507;-77
2023/04/16 05:26:43;;;;;;;42.72;22.75;;;;;;;;;;4953334;28;20043;-78
2023/04/16 05:29:09;;;;;;;46.60;23.02;;;;;;;;;;4953568;28;20126;-77
2023/04/16 05:31:36;;;;;;;42.78;22.52;;;;;;;;;;4951700;28;20051;-77
2023/04/16 05:34:03;;;;;;;43.72;23.50;;;;;;;;;;4952834;28;20531;-78
2023/04/16 05:36:29;;;;;;;43.33;21.50;;;;;;;;;;4936995;28;20054;-78
2023/04/16 05:38:56;;;;;;;39.47;21.52;;;;;;;;;;4952012;28;20055;-77
2023/04/16 05:41:23;;;;;;;41.17;21.67;;;;;;;;;;4959392;28;20035;-79
2023/04/16 05:43:49;;;;;;;40.75;21.23;;;;;;;;;;4971321;28;20106;-78
2023/04/16 05:46:16;;;;;;;36.45;20.75;;;;;;;;;;4972516;28;20089;-78
2023/04/16 05:48:43;;;;;;;39.67;21.98;;;;;;;;;;4973594;28;20047;-78
2023/04/16 05:51:10;;;;;;;37.15;21.10;;;;;;;;;;4972722;28;20521;-77
2023/04/16 05:53:36;;;;;;;39.35;21.63;;;;;;;;;;4971971;28;20467;-78
2023/04/16 05:56:03;;;;;;;37.95;21.02;;;;;;;;;;4975683;28;20045;-77
2023/04/16 05:58:30;;;;;;;46.53;22.45;;;;;;;;;;4972687;28;20050;-77
2023/04/16 06:00:56;;;;;;;42.05;22.27;;;;;;;;;;4972125;28;20039;-78
2023/04/16 06:03:22;;;;;;;46.67;22.77;;;;;;;;;;4960394;28;20546;-78
2023/04/16 06:05:49;;;;;;;46.25;23.17;;;;;;;;;;4960214;28;20103;-78
2023/04/16 06:08:16;;;;;;;42.47;21.73;;;;;;;;;;4960325;28;20047;-77
2023/04/16 06:10:44;;;;;;;44.40;23.33;;;;;;;;;;4950302;28;20052;-76
2023/04/16 06:13:11;;;;;;;46.58;23.25;;;;;;;;;;4950877;28;20163;-76
2023/04/16 06:15:38;;;;;;;46.55;24.05;;;;;;;;;;4951342;28;20047;-75
2023/04/16 06:18:04;;;;;;;45.28;23.10;;;;;;;;;;4950966;28;20628;-75
2023/04/16 06:20:31;;;;;;;45.95;24.40;;;;;;;;;;4950735;28;20071;-76
2023/04/16 06:22:58;;;;;;;46.40;24.48;;;;;;;;;;4950696;28;20126;-75
2023/04/16 06:25:24;;;;;;;49.05;24.70;;;;;;;;;;4948313;28;20050;-75
2023/04/16 06:27:51;;;;;;;53.72;25.27;;;;;;;;;;4948402;28;20071;-76
2023/04/16 06:30:18;;;;;;;56.17;26.15;;;;;;;;;;4949754;28;20163;-75
2023/04/16 06:32:45;;;;;;;53.97;26.67;;;;;;;;;;4950999;28;20046;-75
2023/04/16 06:35:12;;;;;;;54.25;26.40;;;;;;;;;;4949621;28;20066;-77
2023/04/16 06:37:38;;;;;;;61.50;28.50;;;;;;;;;;4951081;28;20054;-77
2023/04/16 06:40:05;;;;;;;62.00;27.65;;;;;;;;;;4941604;28;20061;-77
2023/04/16 06:42:32;;;;;;;59.15;27.88;;;;;;;;;;4939327;28;20046;-76
2023/04/16 06:45:00;;;;;;;55.30;26.70;;;;;;;;;;4961470;28;20054;-76
2023/04/16 06:47:27;;;;;;;59.03;27.13;;;;;;;;;;4950938;28;20063;-75
2023/04/16 06:49:53;;;;;;;57.60;27.13;;;;;;;;;;4949262;28;20095;-77
2023/04/16 06:52:20;;;;;;;56.88;26.70;;;;;;;;;;4949904;28;20049;-76
2023/04/16 06:54:47;;;;;;;55.85;26.90;;;;;;;;;;4949212;28;20114;-75
2023/04/16 06:57:13;;;;;;;53.83;26.02;;;;;;;;;;4949065;28;20126;-76
2023/04/16 06:59:40;;;;;;;51.67;25.70;;;;;;;;;;4948599;28;20349;-76
2023/04/16 07:02:08;;;;;;;57.53;26.70;;;;;;;;;;4949535;28;20051;-76
2023/04/16 07:04:35;;;;;;;51.00;25.40;;;;;;;;;;4952545;28;20074;-75
2023/04/16 07:07:02;;;;;;;52.15;24.10;;;;;;;;;;4959033;28;20039;-76
2023/04/16 07:09:29;;;;;;;49.15;24.23;;;;;;;;;;4960420;28;20043;-79
2023/04/16 07:11:55;;;;;;;47.38;23.20;;;;;;;;;;4957190;28;20046;-77
2023/04/16 07:14:22;;;;;;;49.88;25.00;;;;;;;;;;4962508;28;20138;-78
2023/04/16 07:16:48;;;;;;;53.42;25.50;;;;;;;;;;4962403;28;20057;-78
2023/04/16 07:19:15;;;;;;;48.88;24.25;;;;;;;;;;4962883;28;20035;-78
2023/04/16 07:21:42;;;;;;;51.65;24.83;;;;;;;;;;4951884;28;20139;-79
2023/04/16 07:24:10;;;;;;;47.72;23.77;;;;;;;;;;4961420;28;20106;-78
2023/04/16 07:26:36;;;;;;;43.72;22.42;;;;;;;;;;4957175;28;20055;-77
2023/04/16 07:29:03;;;;;;;50.30;24.70;;;;;;;;;;4957369;28;20039;-77
2023/04/16 07:31:30;;;;;;;51.22;24.65;;;;;;;;;;4957924;28;20069;-78
2023/04/16 07:33:57;;;;;;;46.80;24.13;;;;;;;;;;4960386;28;20106;-77
2023/04/16 07:36:24;;;;;;;39.25;19.92;;;;;;;;;;4967309;28;20046;-78
2023/04/16 07:38:50;;;;;;;40.17;20.77;;;;;;;;;;4969646;28;20043;-78
2023/04/16 07:41:17;;;;;;;33.40;18.83;;;;;;;;;;4968022;28;20039;-77
2023/04/16 07:43:44;;;;;;;41.70;20.80;;;;;;;;;;4968643;28;20133;-78
2023/04/16 07:46:10;;;;;;;40.88;20.77;;;;;;;;;;4967710;28;20043;-78
2023/04/16 07:48:38;;;;;;;43.22;21.05;;;;;;;;;;4969401;28;20040;-77
2023/04/16 07:51:05;;;;;;;44.55;22.58;;;;;;;;;;4969491;28;20495;-78
2023/04/16 07:53:31;;;;;;;42.90;22.10;;;;;;;;;;4966565;28;20058;-77
2023/04/16 07:55:58;;;;;;;42.60;22.20;;;;;;;;;;4968519;28;20058;-77
2023/04/16 07:58:25;;;;;;;42.90;22.02;;;;;;;;;;4952577;28;20068;-76
2023/04/16 08:00:52;;;;;;;36.53;19.67;;;;;;;;;;4969878;28;20123;-78
2023/04/16 08:03:21;;;;;;;33.92;18.77;;;;;;;;;;4971496;28;20051;-76
2023/04/16 08:05:48;;;;;;;32.75;17.80;;;;;;;;;;4971400;28;20077;-77
2023/04/16 08:08:15;;;;;;;35.40;19.70;;;;;;;;;;4953942;28;20054;-79
2023/04/16 08:10:41;;;;;;;31.52;17.90;;;;;;;;;;4954101;28;20047;-79
2023/04/16 08:13:08;;;;;;;29.38;16.95;;;;;;;;;;4953108;28;20058;-79
2023/04/16 08:15:35;;;;;;;27.52;15.05;;;;;;;;;;4953880;28;20043;-78
2023/04/16 08:18:04;;;;;;;23.35;13.82;;;;;;;;;;4955063;28;20050;-80
2023/04/16 08:20:31;;;;;;;26.88;15.32;;;;;;;;;;4955225;28;20098;-79
2023/04/16 08:22:58;;;;;;;24.88;14.48;;;;;;;;;;4953628;28;20519;-81
2023/04/16 08:25:25;;;;;;;24.45;14.30;;;;;;;;;;4955632;28;20396;-81
2023/04/16 08:27:52;;;;;;;24.98;14.45;;;;;;;;;;4962972;28;20049;-81
2023/04/16 08:30:20;;;;;;;22.85;13.50;;;;;;;;;;4955038;28;20051;-81
2023/04/16 08:32:47;;;;;;;24.08;13.68;;;;;;;;;;4952735;28;20067;-80
2023/04/16 08:35:15;;;;;;;21.70;12.70;;;;;;;;;;4955945;28;20079;-80
2023/04/16 08:37:42;;;;;;;19.90;11.77;;;;;;;;;;4955923;28;20067;-83
2023/04/16 08:40:09;;;;;;;21.02;11.77;;;;;;;;;;4957059;28;20067;-80
2023/04/16 08:42:51;;;;;;;24.38;13.75;;;;;;;;;;4962655;28;20102;-80
2023/04/16 08:45:18;;;;;;;24.83;15.02;;;;;;;;;;4944926;28;20119;-82
2023/04/16 08:47:49;;;;;;;23.83;13.80;;;;;;;;;;4967927;28;20066;-82
2023/04/16 08:50:16;;;;;;;27.17;14.48;;;;;;;;;;4955823;28;20123;-81
2023/04/16 08:52:51;;;;;;;24.00;14.18;;;;;;;;;;4952102;28;20158;-82
2023/04/16 08:55:19;;;;;;;22.73;12.97;;;;;;;;;;4956595;28;20096;-81
2023/04/16 08:57:58;;;;;;;22.58;13.93;;;;;;;;;;4957212;28;20917;-80
2023/04/16 09:00:25;;;;;;;29.60;15.85;;;;;;;;;;4954520;28;20130;-81
2023/04/16 09:02:52;;;;;;;23.10;14.00;;;;;;;;;;4960879;28;20491;-80
2023/04/16 09:05:20;;;;;;;34.88;14.50;;;;;;;;;;4966586;28;20051;-79
2023/04/16 09:07:47;;;;;;;34.25;14.35;;;;;;;;;;4954925;28;20061;-81
2023/04/16 09:10:14;;;;;;;27.95;14.27;;;;;;;;;;4971342;28;20058;-81
2023/04/16 09:12:41;;;;;;;21.90;13.07;;;;;;;;;;4971432;28;20051;-80
2023/04/16 09:15:10;;;;;;;20.92;11.88;;;;;;;;;;4971803;28;20114;-78
2023/04/16 09:17:36;;;;;;;19.67;11.30;;;;;;;;;;4956352;28;20055;-79
2023/04/16 09:20:05;;;;;;;19.23;12.15;;;;;;;;;;4953687;28;20133;-80
2023/04/16 09:22:31;;;;;;;21.58;12.05;;;;;;;;;;4962587;28;20055;-81
2023/04/16 09:24:58;;;;;;;20.17;11.13;;;;;;;;;;4963367;28;20052;-80
2023/04/16 09:27:25;;;;;;;17.65;10.63;;;;;;;;;;4967976;28;20130;-80
2023/04/16 09:29:51;;;;;;;15.35;9.48;;;;;;;;;;4962667;28;20047;-80
2023/04/16 09:32:23;;;;;;;16.58;10.23;;;;;;;;;;4962006;28;20443;-79
2023/04/16 09:34:57;;;;;;;14.52;9.40;;;;;;;;;;4954193;28;20703;-79
2023/04/16 09:37:26;;;;;;;16.38;10.30;;;;;;;;;;4970265;28;20051;-79
2023/04/16 09:39:54;;;;;;;15.13;9.45;;;;;;;;;;4960269;28;20046;-79
2023/04/16 09:42:26;;;;;;;15.98;9.27;;;;;;;;;;4957955;28;20043;-80
2023/04/16 09:44:53;;;;;;;14.45;9.57;;;;;;;;;;4955875;28;20326;-80
2023/04/16 09:47:20;;;;;;;16.50;9.35;;;;;;;;;;4974458;28;20057;-80
2023/04/16 09:49:47;;;;;;;15.80;9.13;;;;;;;;;;4960882;28;20050;-79
2023/04/16 09:52:20;;;;;;;16.98;10.80;;;;;;;;;;4961588;28;20058;-80
2023/04/16 09:54:46;;;;;;;15.27;9.68;;;;;;;;;;4963842;28;20213;-80
2023/04/16 09:57:13;;;;;;;15.57;10.00;;;;;;;;;;4959935;28;20039;-79
2023/04/16 09:59:42;;;;;;;19.52;11.00;;;;;;;;;;4965454;28;20074;-78
2023/04/16 10:02:08;;;;;;;16.83;9.82;;;;;;;;;;4962577;28;20057;-78
2023/04/16 10:04:45;;;;;;;14.60;8.85;;;;;;;;;;4965926;28;20151;-80
2023/04/16 10:07:13;;;;;;;14.82;9.13;;;;;;;;;;4965268;28;20074;-78
2023/04/16 10:09:40;;;;;;;16.52;9.75;;;;;;;;;;4961276;28;20043;-78
2023/04/16 10:12:07;;;;;;;13.45;7.95;;;;;;;;;;4970382;28;20035;-77
2023/04/16 10:14:34;;;;;;;12.70;8.38;;;;;;;;;;4972964;28;20039;-78
2023/04/16 10:17:02;;;;;;;14.13;9.20;;;;;;;;;;4964164;28;20542;-78
2023/04/16 10:19:30;;;;;;;15.30;9.13;;;;;;;;;;4965121;28;20047;-81
2023/04/16 10:21:57;;;;;;;13.43;8.40;;;;;;;;;;4948275;28;20044;-77
2023/04/16 10:24:24;;;;;;;12.25;7.95;;;;;;;;;;4950965;28;20049;-79
2023/04/16 10:26:51;;;;;;;12.20;7.63;;;;;;;;;;4953252;28;20047;-79
2023/04/16 10:29:19;;;;;;;10.75;7.20;;;;;;;;;;4956388;28;20050;-80
2023/04/16 10:31:46;;;;;;;11.38;7.25;;;;;;;;;;4956582;28;20495;-79
2023/04/16 10:34:13;;;;;;;11.45;6.80;;;;;;;;;;4955098;28;20049;-80
2023/04/16 10:36:41;;;;;;;12.00;7.13;;;;;;;;;;4957222;28;20054;-79
2023/04/16 10:39:12;;;;;;;11.30;7.18;;;;;;;;;;4956306;28;20153;-80
2023/04/16 10:41:42;;;;;;;10.85;7.30;;;;;;;;;;4948845;28;20225;-80
2023/04/16 10:44:09;;;;;;;9.45;6.40;;;;;;;;;;4963219;28;20086;-81
2023/04/16 10:46:37;;;;;;;10.52;6.95;;;;;;;;;;4948024;28;20055;-79
2023/04/16 10:49:23;;;;;;;9.05;5.97;;;;;;;;;;4955003;28;20078;-80
2023/04/16 10:51:53;;;;;;;12.63;7.03;;;;;;;;;;4949598;28;20051;-78
2023/04/16 10:54:22;;;;;;;12.45;7.07;;;;;;;;;;4946816;28;20047;-79
2023/04/16 10:56:50;;;;;;;13.57;8.20;;;;;;;;;;4950302;28;20499;-81
2023/04/16 10:59:18;;;;;;;11.75;7.13;;;;;;;;;;4959464;28;20047;-80
2023/04/16 11:01:46;;;;;;;14.07;7.82;;;;;;;;;;4949414;28;20086;-78
2023/04/16 11:04:18;;;;;;;12.25;7.63;;;;;;;;;;4952932;28;20114;-80
2023/04/16 11:07:04;;;;;;;10.57;6.47;;;;;;;;;;4953762;28;20071;-80
2023/04/16 11:09:31;;;;;;;;;;;;;;;;;;4943956;28;20185;-80
2023/04/16 11:11:59;;;;;;;9.52;5.88;;;;;;;;;;4945356;28;19934;-80
2023/04/16 11:14:26;;;;;;;8.32;5.70;;;;;;;;;;4963733;28;20126;-80
2023/04/16 11:16:53;;;;;;;9.35;5.60;;;;;;;;;;4958849;28;20047;-79
2023/04/16 11:19:19;;;;;;;9.05;5.95;;;;;;;;;;4943275;28;20055;-80
2023/04/16 11:21:46;;;;;;;9.68;6.15;;;;;;;;;;4946787;28;20097;-80
2023/04/16 11:24:13;;;;;;;10.20;5.50;;;;;;;;;;4945887;28;20047;-81
2023/04/16 11:26:40;;;;;;;14.43;5.15;;;;;;;;;;4948131;28;20550;-81
2023/04/16 11:29:12;;;;;;;9.18;5.32;;;;;;;;;;4946766;28;20074;-79
2023/04/16 11:31:39;;;;;;;8.50;5.65;;;;;;;;;;4944765;28;20051;-79
2023/04/16 11:34:07;;;;;;;7.45;5.22;;;;;;;;;;4947295;28;20527;-81
2023/04/16 11:36:43;;;;;;;8.80;6.03;;;;;;;;;;4927041;29;20075;-79
2023/04/16 11:39:10;;;;;;;10.38;6.57;;;;;;;;;;4945505;28;20500;-80
2023/04/16 11:41:47;;;;;;;11.65;6.10;;;;;;;;;;4944696;28;20055;-80
2023/04/16 11:44:26;;;;;;;8.77;5.70;;;;;;;;;;4951585;28;20495;-79
2023/04/16 11:46:53;;;;;;;7.93;5.65;;;;;;;;;;4956188;28;20055;-80
2023/04/16 11:49:29;;;;;;;8.18;5.50;;;;;;;;;;4946851;28;20158;-80
2023/04/16 11:51:56;;;;;;;10.45;5.57;;;;;;;;;;4944882;28;20073;-81
2023/04/16 11:54:23;;;;;;;7.22;4.93;;;;;;;;;;4952893;28;20046;-80
2023/04/16 11:56:51;;;;;;;7.72;4.43;;;;;;;;;;4955604;28;20133;-79
2023/04/16 11:59:18;;;;;;;7.68;4.95;;;;;;;;;;4950041;28;20054;-81
2023/04/16 12:01:50;;;;;;;8.00;4.95;;;;;;;;;;4925315;28;20051;-79
2023/04/16 12:04:20;;;;;;;6.03;4.45;;;;;;;;;;4944611;28;20677;-80
2023/04/16 12:07:05;;;;;;;7.22;4.78;;;;;;;;;;4944323;28;20090;-79
2023/04/16 12:09:34;;;;;;;9.27;4.87;;;;;;;;;;4934140;28;20047;-77
2023/04/16 12:12:05;;;;;;;7.75;5.35;;;;;;;;;;4963784;28;20058;-79
2023/04/16 12:14:31;;;;;;;6.78;4.97;;;;;;;;;;4956787;28;20051;-79
2023/04/16 12:17:17;;;;;;;8.23;5.03;;;;;;;;;;4945418;28;20123;-79
2023/04/16 12:20:04;;;;;;;7.15;5.22;;;;;;;;;;4946911;28;20142;-79
2023/04/16 12:22:33;;;;;;;7.50;4.68;;;;;;;;;;4949124;28;20427;-80
2023/04/16 12:25:04;;;;;;;9.18;5.13;;;;;;;;;;4954265;28;20126;-79
2023/04/16 12:27:46;;;;;;;7.95;4.95;;;;;;;;;;4944958;28;20081;-79
2023/04/16 12:30:16;;;;;;;;;;;;;;;;;;4965600;28;20050;-80
2023/04/16 12:32:44;;;;;;;7.95;4.70;;;;;;;;;;4950969;28;20335;-80
2023/04/16 12:35:11;;;;;;;6.88;4.78;;;;;;;;;;4929649;28;20081;-80
2023/04/16 12:37:39;;;;;;;6.93;3.83;;;;;;;;;;4941289;28;20047;-80
2023/04/16 12:40:07;;;;;;;6.80;4.50;;;;;;;;;;4947627;28;20585;-80
2023/04/16 12:42:35;;;;;;;8.38;4.97;;;;;;;;;;4946639;28;20058;-80
2023/04/16 12:45:03;;;;;;;7.35;4.78;;;;;;;;;;4964888;28;20055;-79
2023/04/16 12:47:30;;;;;;;8.70;5.43;;;;;;;;;;4974608;28;20046;-81
2023/04/16 12:49:57;;;;;;;8.57;5.68;;;;;;;;;;4952374;28;20161;-80
2023/04/16 12:52:24;;;;;;;9.15;5.68;;;;;;;;;;4949002;28;20502;-79
2023/04/16 12:54:51;;;;;;;10.52;5.97;;;;;;;;;;4903480;28;1278307;-79
2023/04/16 12:57:22;;;;;;;9.48;6.30;;;;;;;;;;4944092;28;20143;-78
2023/04/16 12:59:49;;;;;;;8.70;5.63;;;;;;;;;;4947316;28;20047;-81
2023/04/16 13:02:16;;;;;;;9.07;6.25;;;;;;;;;;4953427;28;20058;-81
2023/04/16 13:04:45;;;;;;;8.02;5.60;;;;;;;;;;4946850;28;20059;-79
2023/04/16 13:07:12;;;;;;;9.43;5.40;;;;;;;;;;4948163;28;20053;-79
2023/04/16 13:09:39;;;;;;;7.93;5.40;;;;;;;;;;4944878;28;20043;-80
2023/04/16 13:12:06;;;;;;;10.05;5.07;;;;;;;;;;4944840;28;20051;-80
2023/04/16 13:14:32;;;;;;;6.40;4.68;;;;;;;;;;4948302;28;20036;-81
2023/04/16 13:17:00;;;;;;;8.40;5.95;;;;;;;;;;4956125;28;20070;-80
2023/04/16 13:19:26;;;;;;;9.82;5.80;;;;;;;;;;4965544;28;20054;-79
2023/04/16 13:21:53;;;;;;;6.78;5.07;;;;;;;;;;4951193;28;20086;-80
2023/04/16 13:24:19;;;;;;;8.38;4.20;;;;;;;;;;4966015;28;20119;-81
2023/04/16 13:26:47;;;;;;;7.22;4.55;;;;;;;;;;4959672;28;20059;-79
2023/04/16 13:29:14;;;;;;;8.30;5.78;;;;;;;;;;4951995;28;20047;-79
2023/04/16 13:31:41;;;;;;;13.63;5.25;;;;;;;;;;4953403;28;20070;-79
2023/04/16 13:34:07;;;;;;;9.38;5.35;;;;;;;;;;4966979;28;20054;-81
2023/04/16 13:36:34;;;;;;;8.45;5.78;;;;;;;;;;4967661;28;20107;-80
2023/04/16 13:39:03;;;;;;;8.95;5.90;;;;;;;;;;4955104;28;20055;-80
2023/04/16 13:41:30;;;;;;;9.88;5.85;;;;;;;;;;4952006;28;20130;-80
2023/04/16 13:43:57;;;;;;;8.20;5.40;;;;;;;;;;4950014;28;20056;-80
2023/04/16 13:46:24;;;;;;;8.52;4.82;;;;;;;;;;4948578;28;20067;-80
2023/04/16 13:48:51;;;;;;;6.30;3.53;;;;;;;;;;4949861;28;20059;-81
2023/04/16 13:51:17;;;;;;;8.65;4.00;;;;;;;;;;4949451;28;20081;-80
2023/04/16 13:53:44;;;;;;;6.03;3.78;;;;;;;;;;4946808;28;20114;-80
2023/04/16 13:56:11;;;;;;;6.47;4.40;;;;;;;;;;4950065;28;20050;-79
2023/04/16 13:58:38;;;;;;;11.30;4.20;;;;;;;;;;4947708;28;20535;-80
2023/04/16 14:01:05;;;;;;;9.45;4.80;;;;;;;;;;4948020;28;20051;-81
2023/04/16 14:03:34;;;;;;;6.80;3.88;;;;;;;;;;4947468;28;20043;-79
2023/04/16 14:06:01;;;;;;;7.97;4.78;;;;;;;;;;4946111;28;20392;-79
2023/04/16 14:08:28;;;;;;;7.63;4.57;;;;;;;;;;4947383;28;20752;-79
2023/04/16 14:10:55;;;;;;;7.20;4.40;;;;;;;;;;4945896;28;20654;-80
2023/04/16 14:13:22;;;;;;;6.30;4.15;;;;;;;;;;4949010;28;20047;-80
2023/04/16 14:15:52;;;;;;;9.65;3.95;;;;;;;;;;4948166;28;20507;-79
2023/04/16 14:18:19;;;;;;;7.50;4.55;;;;;;;;;;4947816;28;20130;-79
2023/04/16 14:20:46;;;;;;;6.50;4.20;;;;;;;;;;4951498;28;20597;-79
2023/04/16 14:23:14;;;;;;;7.60;4.03;;;;;;;;;;4949492;28;20383;-80
2023/04/16 14:25:40;;;;;;;7.85;4.18;;;;;;;;;;4946384;28;20679;-80
2023/04/16 14:28:08;;;;;;;7.50;3.90;;;;;;;;;;4930800;28;20078;-78